sensor_id;sensor_type;location;lat;lon;timestamp;temperature;humidity
71879;DHT22;59755;43.834;4.364;2022-12-05T00:03:41;5.50;81.90
71879;DHT22;59755;43.834;4.364;2022-12-05T00:06:07;5.50;82.50
71879;DHT22;59755;43.834;4.364;2022-12-05T00:08:33;5.50;83.50
71879;DHT22;59755;43.834;4.364;2022-12-05T00:10:58;5.40;82.70
71879;DHT22;59755;43.834;4.364;2022-12-05T00:13:24;5.50;82.90
71879;DHT22;59755;43.834;4.364;2022-12-05T00:15:50;5.40;82.30
71879;DHT22;59755;43.834;4.364;2022-12-05T00:18:16;5.30;83.00
71879;DHT22;59755;43.834;4.364;2022-12-05T00:20:46;5.30;84.10
71879;DHT22;59755;43.834;4.364;2022-12-05T00:23:11;5.40;83.30
71879;DHT22;59755;43.834;4.364;2022-12-05T00:25:37;5.40;82.60
71879;DHT22;59755;43.834;4.364;2022-12-05T00:28:03;5.40;81.70
71879;DHT22;59755;43.834;4.364;2022-12-05T00:30:29;5.40;81.90
71879;DHT22;59755;43.834;4.364;2022-12-05T00:32:55;5.40;81.60
71879;DHT22;59755;43.834;4.364;2022-12-05T00:35:20;5.30;81.90
71879;DHT22;59755;43.834;4.364;2022-12-05T00:37:46;5.30;81.50
71879;DHT22;59755;43.834;4.364;2022-12-05T00:40:12;5.20;81.40
71879;DHT22;59755;43.834;4.364;2022-12-05T00:42:38;5.20;81.50
71879;DHT22;59755;43.834;4.364;2022-12-05T00:45:04;5.20;80.90
71879;DHT22;59755;43.834;4.364;2022-12-05T00:47:31;5.20;81.60
71879;DHT22;59755;43.834;4.364;2022-12-05T00:49:58;5.20;82.10
71879;DHT22;59755;43.834;4.364;2022-12-05T00:52:24;5.20;82.00
71879;DHT22;59755;43.834;4.364;2022-12-05T00:54:51;5.30;81.90
71879;DHT22;59755;43.834;4.364;2022-12-05T00:57:16;5.20;81.20
71879;DHT22;59755;43.834;4.364;2022-12-05T00:59:42;5.20;81.80
71879;DHT22;59755;43.834;4.364;2022-12-05T01:02:08;5.30;81.30
71879;DHT22;59755;43.834;4.364;2022-12-05T01:04:33;5.20;81.20
71879;DHT22;59755;43.834;4.364;2022-12-05T01:06:59;5.20;81.50
71879;DHT22;59755;43.834;4.364;2022-12-05T01:09:25;5.20;81.70
71879;DHT22;59755;43.834;4.364;2022-12-05T01:11:51;5.20;81.60
71879;DHT22;59755;43.834;4.364;2022-12-05T01:14:19;5.10;82.20
71879;DHT22;59755;43.834;4.364;2022-12-05T01:16:47;5.20;82.30
71879;DHT22;59755;43.834;4.364;2022-12-05T01:19:25;5.10;82.30
71879;DHT22;59755;43.834;4.364;2022-12-05T01:21:52;5.20;81.80
71879;DHT22;59755;43.834;4.364;2022-12-05T01:24:18;5.20;81.30
71879;DHT22;59755;43.834;4.364;2022-12-05T01:26:45;5.10;81.60
71879;DHT22;59755;43.834;4.364;2022-12-05T01:29:13;5.20;81.20
71879;DHT22;59755;43.834;4.364;2022-12-05T01:31:40;5.20;81.40
71879;DHT22;59755;43.834;4.364;2022-12-05T01:34:08;5.10;81.60
71879;DHT22;59755;43.834;4.364;2022-12-05T01:36:34;5.10;81.30
71879;DHT22;59755;43.834;4.364;2022-12-05T01:39:00;5.10;81.50
71879;DHT22;59755;43.834;4.364;2022-12-05T01:41:31;5.20;81.30
71879;DHT22;59755;43.834;4.364;2022-12-05T01:46:24;5.10;81.70
71879;DHT22;59755;43.834;4.364;2022-12-05T01:48:52;5.20;82.00
71879;DHT22;59755;43.834;4.364;2022-12-05T01:51:20;5.10;81.40
71879;DHT22;59755;43.834;4.364;2022-12-05T01:53:46;5.10;81.50
71879;DHT22;59755;43.834;4.364;2022-12-05T01:56:12;5.10;81.40
71879;DHT22;59755;43.834;4.364;2022-12-05T01:58:40;5.00;81.60
71879;DHT22;59755;43.834;4.364;2022-12-05T02:01:07;4.90;82.20
71879;DHT22;59755;43.834;4.364;2022-12-05T02:03:34;4.80;82.50
71879;DHT22;59755;43.834;4.364;2022-12-05T02:06:02;4.60;83.80
71879;DHT22;59755;43.834;4.364;2022-12-05T02:08:28;4.60;83.20
71879;DHT22;59755;43.834;4.364;2022-12-05T02:10:56;4.70;83.80
71879;DHT22;59755;43.834;4.364;2022-12-05T02:14:26;4.70;83.10
71879;DHT22;59755;43.834;4.364;2022-12-05T02:19:11;4.50;82.60
71879;DHT22;59755;43.834;4.364;2022-12-05T02:30:24;4.50;83.50
71879;DHT22;59755;43.834;4.364;2022-12-05T02:43:12;4.60;83.10
71879;DHT22;59755;43.834;4.364;2022-12-05T02:45:40;4.60;82.90
71879;DHT22;59755;43.834;4.364;2022-12-05T02:48:08;4.60;82.40
71879;DHT22;59755;43.834;4.364;2022-12-05T02:50:37;4.60;81.60
71879;DHT22;59755;43.834;4.364;2022-12-05T02:53:07;4.60;81.50
71879;DHT22;59755;43.834;4.364;2022-12-05T02:55:35;4.50;81.60
71879;DHT22;59755;43.834;4.364;2022-12-05T02:58:13;4.40;81.40
71879;DHT22;59755;43.834;4.364;2022-12-05T03:00:43;4.30;83.20
71879;DHT22;59755;43.834;4.364;2022-12-05T03:03:18;4.10;83.70
71879;DHT22;59755;43.834;4.364;2022-12-05T03:05:50;4.10;84.30
71879;DHT22;59755;43.834;4.364;2022-12-05T03:08:23;4.00;84.20
71879;DHT22;59755;43.834;4.364;2022-12-05T03:10:50;4.00;84.20
71879;DHT22;59755;43.834;4.364;2022-12-05T03:13:25;3.90;84.90
71879;DHT22;59755;43.834;4.364;2022-12-05T03:15:55;3.90;85.30
71879;DHT22;59755;43.834;4.364;2022-12-05T03:18:23;3.80;85.20
71879;DHT22;59755;43.834;4.364;2022-12-05T03:21:04;3.80;85.60
71879;DHT22;59755;43.834;4.364;2022-12-05T03:23:40;3.70;86.60
71879;DHT22;59755;43.834;4.364;2022-12-05T03:37:10;4.10;84.60
71879;DHT22;59755;43.834;4.364;2022-12-05T03:39:39;4.10;84.90
71879;DHT22;59755;43.834;4.364;2022-12-05T03:42:11;4.10;84.50
71879;DHT22;59755;43.834;4.364;2022-12-05T03:47:30;3.90;84.70
71879;DHT22;59755;43.834;4.364;2022-12-05T03:50:02;4.00;84.00
71879;DHT22;59755;43.834;4.364;2022-12-05T03:52:41;4.10;84.40
71879;DHT22;59755;43.834;4.364;2022-12-05T03:55:09;4.10;83.70
71879;DHT22;59755;43.834;4.364;2022-12-05T03:57:56;4.10;84.00
71879;DHT22;59755;43.834;4.364;2022-12-05T04:00:23;4.20;83.90
71879;DHT22;59755;43.834;4.364;2022-12-05T04:05:48;4.10;83.60
71879;DHT22;59755;43.834;4.364;2022-12-05T04:08:24;4.10;84.10
71879;DHT22;59755;43.834;4.364;2022-12-05T04:10:52;4.10;84.60
71879;DHT22;59755;43.834;4.364;2022-12-05T04:13:32;4.10;84.40
71879;DHT22;59755;43.834;4.364;2022-12-05T04:16:21;4.10;84.50
71879;DHT22;59755;43.834;4.364;2022-12-05T04:21:46;4.20;84.70
71879;DHT22;59755;43.834;4.364;2022-12-05T04:24:18;4.20;84.60
71879;DHT22;59755;43.834;4.364;2022-12-05T04:32:18;4.00;84.90
71879;DHT22;59755;43.834;4.364;2022-12-05T04:34:49;4.00;85.80
71879;DHT22;59755;43.834;4.364;2022-12-05T04:37:21;4.10;85.20
71879;DHT22;59755;43.834;4.364;2022-12-05T04:40:14;4.20;84.60
71879;DHT22;59755;43.834;4.364;2022-12-05T04:42:39;4.10;84.40
71879;DHT22;59755;43.834;4.364;2022-12-05T04:45:09;4.10;84.50
71879;DHT22;59755;43.834;4.364;2022-12-05T04:47:39;4.10;84.20
71879;DHT22;59755;43.834;4.364;2022-12-05T04:50:08;4.00;84.00
71879;DHT22;59755;43.834;4.364;2022-12-05T04:52:36;3.90;84.50
71879;DHT22;59755;43.834;4.364;2022-12-05T04:55:09;3.90;84.30
71879;DHT22;59755;43.834;4.364;2022-12-05T05:00:05;4.00;83.40
71879;DHT22;59755;43.834;4.364;2022-12-05T05:02:36;4.00;83.40
71879;DHT22;59755;43.834;4.364;2022-12-05T05:05:07;4.00;84.80
71879;DHT22;59755;43.834;4.364;2022-12-05T05:07:45;4.10;84.50
71879;DHT22;59755;43.834;4.364;2022-12-05T05:10:15;4.10;84.40
71879;DHT22;59755;43.834;4.364;2022-12-05T05:12:41;4.00;84.80
71879;DHT22;59755;43.834;4.364;2022-12-05T05:15:07;3.90;85.00
71879;DHT22;59755;43.834;4.364;2022-12-05T05:17:33;3.90;85.90
71879;DHT22;59755;43.834;4.364;2022-12-05T05:19:59;3.80;86.60
71879;DHT22;59755;43.834;4.364;2022-12-05T05:22:43;3.70;86.40
71879;DHT22;59755;43.834;4.364;2022-12-05T05:25:12;3.50;87.40
71879;DHT22;59755;43.834;4.364;2022-12-05T05:27:38;3.50;87.60
71879;DHT22;59755;43.834;4.364;2022-12-05T05:30:04;3.60;87.20
71879;DHT22;59755;43.834;4.364;2022-12-05T05:32:31;3.80;87.90
71879;DHT22;59755;43.834;4.364;2022-12-05T05:34:57;3.90;86.80
71879;DHT22;59755;43.834;4.364;2022-12-05T05:37:23;4.00;87.80
71879;DHT22;59755;43.834;4.364;2022-12-05T05:39:49;4.20;88.80
71879;DHT22;59755;43.834;4.364;2022-12-05T05:42:14;4.30;89.00
71879;DHT22;59755;43.834;4.364;2022-12-05T05:44:40;4.40;89.20
71879;DHT22;59755;43.834;4.364;2022-12-05T05:47:06;4.50;89.00
71879;DHT22;59755;43.834;4.364;2022-12-05T05:49:31;4.60;89.40
71879;DHT22;59755;43.834;4.364;2022-12-05T05:51:57;4.60;89.00
71879;DHT22;59755;43.834;4.364;2022-12-05T05:54:23;4.60;90.00
71879;DHT22;59755;43.834;4.364;2022-12-05T05:56:48;4.60;89.80
71879;DHT22;59755;43.834;4.364;2022-12-05T05:59:14;4.60;89.30
71879;DHT22;59755;43.834;4.364;2022-12-05T06:01:40;4.60;89.80
71879;DHT22;59755;43.834;4.364;2022-12-05T06:04:05;4.60;89.70
71879;DHT22;59755;43.834;4.364;2022-12-05T06:06:32;4.60;90.20
71879;DHT22;59755;43.834;4.364;2022-12-05T06:08:58;4.60;90.70
71879;DHT22;59755;43.834;4.364;2022-12-05T06:11:25;4.70;90.40
71879;DHT22;59755;43.834;4.364;2022-12-05T06:13:52;4.60;90.30
71879;DHT22;59755;43.834;4.364;2022-12-05T06:16:18;4.60;91.20
71879;DHT22;59755;43.834;4.364;2022-12-05T06:18:45;4.50;91.40
71879;DHT22;59755;43.834;4.364;2022-12-05T06:21:11;4.60;91.90
71879;DHT22;59755;43.834;4.364;2022-12-05T06:23:37;4.70;92.00
71879;DHT22;59755;43.834;4.364;2022-12-05T06:26:04;4.80;91.50
71879;DHT22;59755;43.834;4.364;2022-12-05T06:28:30;4.80;90.80
71879;DHT22;59755;43.834;4.364;2022-12-05T06:30:56;4.80;91.20
71879;DHT22;59755;43.834;4.364;2022-12-05T06:33:22;4.90;91.20
71879;DHT22;59755;43.834;4.364;2022-12-05T06:35:56;4.80;91.10
71879;DHT22;59755;43.834;4.364;2022-12-05T06:38:25;4.80;91.70
71879;DHT22;59755;43.834;4.364;2022-12-05T06:40:50;4.90;92.10
71879;DHT22;59755;43.834;4.364;2022-12-05T06:43:16;4.90;92.10
71879;DHT22;59755;43.834;4.364;2022-12-05T06:45:42;5.10;91.80
71879;DHT22;59755;43.834;4.364;2022-12-05T06:48:08;5.10;90.60
71879;DHT22;59755;43.834;4.364;2022-12-05T06:50:33;5.10;90.90
71879;DHT22;59755;43.834;4.364;2022-12-05T06:52:59;5.20;90.70
71879;DHT22;59755;43.834;4.364;2022-12-05T06:55:25;5.10;90.20
71879;DHT22;59755;43.834;4.364;2022-12-05T06:57:50;5.10;90.40
71879;DHT22;59755;43.834;4.364;2022-12-05T07:00:16;5.10;90.80
71879;DHT22;59755;43.834;4.364;2022-12-05T07:03:00;5.10;91.20
71879;DHT22;59755;43.834;4.364;2022-12-05T07:05:26;5.10;90.70
71879;DHT22;59755;43.834;4.364;2022-12-05T07:07:52;5.10;91.10
71879;DHT22;59755;43.834;4.364;2022-12-05T07:10:17;5.10;90.90
71879;DHT22;59755;43.834;4.364;2022-12-05T07:12:43;5.10;90.60
71879;DHT22;59755;43.834;4.364;2022-12-05T07:15:09;5.10;90.90
71879;DHT22;59755;43.834;4.364;2022-12-05T07:17:37;5.10;90.40
71879;DHT22;59755;43.834;4.364;2022-12-05T07:20:04;5.10;90.50
71879;DHT22;59755;43.834;4.364;2022-12-05T07:22:30;5.10;91.00
71879;DHT22;59755;43.834;4.364;2022-12-05T07:24:56;5.10;91.20
71879;DHT22;59755;43.834;4.364;2022-12-05T07:27:21;5.10;91.40
71879;DHT22;59755;43.834;4.364;2022-12-05T07:29:47;5.10;91.80
71879;DHT22;59755;43.834;4.364;2022-12-05T07:32:13;5.10;91.50
71879;DHT22;59755;43.834;4.364;2022-12-05T07:34:39;5.20;91.80
71879;DHT22;59755;43.834;4.364;2022-12-05T07:37:05;5.20;91.40
71879;DHT22;59755;43.834;4.364;2022-12-05T07:39:31;5.30;91.20
71879;DHT22;59755;43.834;4.364;2022-12-05T07:41:56;5.30;91.00
71879;DHT22;59755;43.834;4.364;2022-12-05T07:44:22;5.20;91.40
71879;DHT22;59755;43.834;4.364;2022-12-05T07:46:48;5.20;92.10
71879;DHT22;59755;43.834;4.364;2022-12-05T07:49:13;5.30;91.80
71879;DHT22;59755;43.834;4.364;2022-12-05T07:51:42;5.50;91.90
71879;DHT22;59755;43.834;4.364;2022-12-05T07:54:08;5.50;90.90
71879;DHT22;59755;43.834;4.364;2022-12-05T07:56:33;5.60;91.50
71879;DHT22;59755;43.834;4.364;2022-12-05T07:58:59;5.60;90.30
71879;DHT22;59755;43.834;4.364;2022-12-05T08:01:27;5.60;90.60
71879;DHT22;59755;43.834;4.364;2022-12-05T08:03:55;5.50;90.80
71879;DHT22;59755;43.834;4.364;2022-12-05T08:06:26;5.50;90.90
71879;DHT22;59755;43.834;4.364;2022-12-05T08:08:52;5.50;90.20
71879;DHT22;59755;43.834;4.364;2022-12-05T08:11:21;5.40;90.50
71879;DHT22;59755;43.834;4.364;2022-12-05T08:13:48;5.40;91.00
71879;DHT22;59755;43.834;4.364;2022-12-05T08:16:16;5.40;91.20
71879;DHT22;59755;43.834;4.364;2022-12-05T08:18:43;5.40;91.50
71879;DHT22;59755;43.834;4.364;2022-12-05T08:21:18;5.40;92.00
71879;DHT22;59755;43.834;4.364;2022-12-05T08:23:44;5.50;91.80
71879;DHT22;59755;43.834;4.364;2022-12-05T08:26:12;5.60;92.10
71879;DHT22;59755;43.834;4.364;2022-12-05T08:28:38;5.60;91.70
71879;DHT22;59755;43.834;4.364;2022-12-05T08:31:13;5.70;91.30
71879;DHT22;59755;43.834;4.364;2022-12-05T08:33:39;5.70;92.00
71879;DHT22;59755;43.834;4.364;2022-12-05T08:36:10;5.70;91.90
71879;DHT22;59755;43.834;4.364;2022-12-05T08:38:36;5.90;91.90
71879;DHT22;59755;43.834;4.364;2022-12-05T08:41:04;5.90;91.20
71879;DHT22;59755;43.834;4.364;2022-12-05T08:43:31;5.90;91.10
71879;DHT22;59755;43.834;4.364;2022-12-05T08:45:57;5.90;90.30
71879;DHT22;59755;43.834;4.364;2022-12-05T08:48:23;5.90;90.80
71879;DHT22;59755;43.834;4.364;2022-12-05T08:50:49;5.90;90.90
71879;DHT22;59755;43.834;4.364;2022-12-05T08:53:15;6.00;90.40
71879;DHT22;59755;43.834;4.364;2022-12-05T08:55:41;5.90;89.90
71879;DHT22;59755;43.834;4.364;2022-12-05T08:58:07;6.10;90.00
71879;DHT22;59755;43.834;4.364;2022-12-05T09:00:33;6.20;90.00
71879;DHT22;59755;43.834;4.364;2022-12-05T09:02:59;6.40;89.00
71879;DHT22;59755;43.834;4.364;2022-12-05T09:05:25;6.40;88.20
71879;DHT22;59755;43.834;4.364;2022-12-05T09:07:51;6.40;88.20
71879;DHT22;59755;43.834;4.364;2022-12-05T09:10:17;6.50;88.20
71879;DHT22;59755;43.834;4.364;2022-12-05T09:12:43;6.60;87.60
71879;DHT22;59755;43.834;4.364;2022-12-05T09:15:10;6.50;88.10
71879;DHT22;59755;43.834;4.364;2022-12-05T09:17:37;6.60;88.50
71879;DHT22;59755;43.834;4.364;2022-12-05T09:20:04;6.50;88.40
71879;DHT22;59755;43.834;4.364;2022-12-05T09:22:30;6.60;87.20
71879;DHT22;59755;43.834;4.364;2022-12-05T09:24:56;6.60;87.40
71879;DHT22;59755;43.834;4.364;2022-12-05T09:27:22;6.60;87.20
71879;DHT22;59755;43.834;4.364;2022-12-05T09:29:47;6.60;87.00
71879;DHT22;59755;43.834;4.364;2022-12-05T09:32:13;6.50;87.90
71879;DHT22;59755;43.834;4.364;2022-12-05T09:34:39;6.50;88.20
71879;DHT22;59755;43.834;4.364;2022-12-05T09:37:05;6.50;87.50
71879;DHT22;59755;43.834;4.364;2022-12-05T09:39:32;6.60;88.30
71879;DHT22;59755;43.834;4.364;2022-12-05T09:42:33;6.50;87.80
71879;DHT22;59755;43.834;4.364;2022-12-05T09:45:27;6.60;88.40
71879;DHT22;59755;43.834;4.364;2022-12-05T09:48:00;6.50;87.90
71879;DHT22;59755;43.834;4.364;2022-12-05T09:50:54;6.50;88.40
71879;DHT22;59755;43.834;4.364;2022-12-05T09:53:28;6.60;89.00
71879;DHT22;59755;43.834;4.364;2022-12-05T09:56:02;6.70;88.60
71879;DHT22;59755;43.834;4.364;2022-12-05T09:58:43;6.80;87.70
71879;DHT22;59755;43.834;4.364;2022-12-05T10:06:49;6.80;88.30
71879;DHT22;59755;43.834;4.364;2022-12-05T10:15:45;7.00;87.40
71879;DHT22;59755;43.834;4.364;2022-12-05T10:17:43;6.90;88.30
71879;DHT22;59755;43.834;4.364;2022-12-05T10:20:15;7.00;87.80
71879;DHT22;59755;43.834;4.364;2022-12-05T10:23:02;6.90;88.00
71879;DHT22;59755;43.834;4.364;2022-12-05T10:25:31;7.10;88.20
71879;DHT22;59755;43.834;4.364;2022-12-05T10:28:00;7.10;87.80
71879;DHT22;59755;43.834;4.364;2022-12-05T10:30:33;7.10;87.80
71879;DHT22;59755;43.834;4.364;2022-12-05T10:33:14;7.20;87.40
71879;DHT22;59755;43.834;4.364;2022-12-05T10:35:42;7.10;87.30
71879;DHT22;59755;43.834;4.364;2022-12-05T10:38:29;7.10;87.60
71879;DHT22;59755;43.834;4.364;2022-12-05T10:40:59;7.10;87.50
71879;DHT22;59755;43.834;4.364;2022-12-05T10:43:28;7.20;87.60
71879;DHT22;59755;43.834;4.364;2022-12-05T10:45:54;7.20;88.30
71879;DHT22;59755;43.834;4.364;2022-12-05T10:48:21;7.30;88.20
71879;DHT22;59755;43.834;4.364;2022-12-05T10:50:55;7.30;88.30
71879;DHT22;59755;43.834;4.364;2022-12-05T10:53:47;7.40;88.10
71879;DHT22;59755;43.834;4.364;2022-12-05T10:56:46;7.50;87.30
71879;DHT22;59755;43.834;4.364;2022-12-05T10:59:24;7.50;86.90
71879;DHT22;59755;43.834;4.364;2022-12-05T11:01:52;7.50;86.80
71879;DHT22;59755;43.834;4.364;2022-12-05T11:04:42;7.50;86.90
71879;DHT22;59755;43.834;4.364;2022-12-05T11:09:53;7.60;86.90
71879;DHT22;59755;43.834;4.364;2022-12-05T11:12:19;7.60;86.60
71879;DHT22;59755;43.834;4.364;2022-12-05T11:14:58;7.80;86.70
71879;DHT22;59755;43.834;4.364;2022-12-05T11:17:30;7.90;86.30
71879;DHT22;59755;43.834;4.364;2022-12-05T11:19:57;7.90;85.60
71879;DHT22;59755;43.834;4.364;2022-12-05T11:22:35;8.00;85.90
71879;DHT22;59755;43.834;4.364;2022-12-05T11:25:24;8.10;85.70
71879;DHT22;59755;43.834;4.364;2022-12-05T11:27:51;8.30;85.20
71879;DHT22;59755;43.834;4.364;2022-12-05T11:30:19;8.40;84.30
71879;DHT22;59755;43.834;4.364;2022-12-05T11:32:45;8.50;82.90
71879;DHT22;59755;43.834;4.364;2022-12-05T11:37:51;8.40;83.50
71879;DHT22;59755;43.834;4.364;2022-12-05T11:40:46;8.20;84.00
71879;DHT22;59755;43.834;4.364;2022-12-05T11:56:26;9.80;79.50
71879;DHT22;59755;43.834;4.364;2022-12-05T12:10:25;10.40;75.80
71879;DHT22;59755;43.834;4.364;2022-12-05T12:13:13;10.50;75.80
71879;DHT22;59755;43.834;4.364;2022-12-05T12:21:00;10.90;73.80
71879;DHT22;59755;43.834;4.364;2022-12-05T12:29:37;10.70;73.90
71879;DHT22;59755;43.834;4.364;2022-12-05T12:35:32;10.50;75.10
71879;DHT22;59755;43.834;4.364;2022-12-05T12:51:31;11.00;72.90
71879;DHT22;59755;43.834;4.364;2022-12-05T12:57:01;11.20;72.50
71879;DHT22;59755;43.834;4.364;2022-12-05T13:03:02;11.70;69.70
71879;DHT22;59755;43.834;4.364;2022-12-05T13:05:38;11.90;69.40
71879;DHT22;59755;43.834;4.364;2022-12-05T13:10:50;11.90;68.90
71879;DHT22;59755;43.834;4.364;2022-12-05T13:13:41;11.90;69.00
71879;DHT22;59755;43.834;4.364;2022-12-05T13:16:12;12.00;68.90
71879;DHT22;59755;43.834;4.364;2022-12-05T13:18:41;12.20;67.80
71879;DHT22;59755;43.834;4.364;2022-12-05T13:21:07;12.00;68.10
71879;DHT22;59755;43.834;4.364;2022-12-05T13:23:44;11.80;69.30
71879;DHT22;59755;43.834;4.364;2022-12-05T13:26:12;11.80;68.90
71879;DHT22;59755;43.834;4.364;2022-12-05T13:31:14;12.10;67.60
71879;DHT22;59755;43.834;4.364;2022-12-05T13:33:49;12.10;67.10
71879;DHT22;59755;43.834;4.364;2022-12-05T13:36:20;11.90;67.00
71879;DHT22;59755;43.834;4.364;2022-12-05T13:39:19;11.60;67.80
71879;DHT22;59755;43.834;4.364;2022-12-05T13:42:05;11.60;68.60
71879;DHT22;59755;43.834;4.364;2022-12-05T13:47:28;11.60;69.30
71879;DHT22;59755;43.834;4.364;2022-12-05T13:52:29;11.00;70.20
71879;DHT22;59755;43.834;4.364;2022-12-05T13:55:19;10.90;71.00
71879;DHT22;59755;43.834;4.364;2022-12-05T13:57:50;10.90;71.70
71879;DHT22;59755;43.834;4.364;2022-12-05T14:05:38;10.70;71.90
71879;DHT22;59755;43.834;4.364;2022-12-05T14:15:47;10.90;72.30
71879;DHT22;59755;43.834;4.364;2022-12-05T14:26:47;10.70;73.30
71879;DHT22;59755;43.834;4.364;2022-12-05T14:35:14;10.70;75.40
71879;DHT22;59755;43.834;4.364;2022-12-05T14:40:36;10.60;76.40
71879;DHT22;59755;43.834;4.364;2022-12-05T14:43:28;10.30;77.30
71879;DHT22;59755;43.834;4.364;2022-12-05T14:50:56;10.10;77.90
71879;DHT22;59755;43.834;4.364;2022-12-05T14:58:44;10.00;79.30
71879;DHT22;59755;43.834;4.364;2022-12-05T15:03:41;10.00;79.10
71879;DHT22;59755;43.834;4.364;2022-12-05T15:06:14;10.00;79.30
71879;DHT22;59755;43.834;4.364;2022-12-05T15:08:53;9.80;79.70
71879;DHT22;59755;43.834;4.364;2022-12-05T15:11:22;9.70;79.80
71879;DHT22;59755;43.834;4.364;2022-12-05T15:14:19;9.70;80.20
71879;DHT22;59755;43.834;4.364;2022-12-05T15:16:46;9.60;80.00
71879;DHT22;59755;43.834;4.364;2022-12-05T15:19:37;9.60;80.20
71879;DHT22;59755;43.834;4.364;2022-12-05T15:22:08;9.50;80.60
71879;DHT22;59755;43.834;4.364;2022-12-05T15:24:38;9.50;80.90
71879;DHT22;59755;43.834;4.364;2022-12-05T15:27:04;9.40;81.20
71879;DHT22;59755;43.834;4.364;2022-12-05T15:29:31;9.30;81.50
71879;DHT22;59755;43.834;4.364;2022-12-05T15:42:35;9.10;82.80
71879;DHT22;59755;43.834;4.364;2022-12-05T15:45:14;9.00;83.00
71879;DHT22;59755;43.834;4.364;2022-12-05T15:50:42;8.90;83.50
71879;DHT22;59755;43.834;4.364;2022-12-05T15:53:11;8.90;83.10
71879;DHT22;59755;43.834;4.364;2022-12-05T15:58:24;8.80;83.20
71879;DHT22;59755;43.834;4.364;2022-12-05T16:01:04;8.80;82.10
71879;DHT22;59755;43.834;4.364;2022-12-05T16:03:52;8.80;82.00
71879;DHT22;59755;43.834;4.364;2022-12-05T16:06:27;8.80;82.00
71879;DHT22;59755;43.834;4.364;2022-12-05T16:08:54;8.80;82.00
71879;DHT22;59755;43.834;4.364;2022-12-05T16:11:21;8.80;81.90
71879;DHT22;59755;43.834;4.364;2022-12-05T16:13:49;8.70;82.10
71879;DHT22;59755;43.834;4.364;2022-12-05T16:16:21;8.60;82.40
71879;DHT22;59755;43.834;4.364;2022-12-05T16:18:49;8.50;83.00
71879;DHT22;59755;43.834;4.364;2022-12-05T16:21:37;8.40;83.10
71879;DHT22;59755;43.834;4.364;2022-12-05T16:24:26;8.30;83.30
71879;DHT22;59755;43.834;4.364;2022-12-05T16:27:22;8.30;84.10
71879;DHT22;59755;43.834;4.364;2022-12-05T16:30:06;8.20;84.40
71879;DHT22;59755;43.834;4.364;2022-12-05T16:32:36;8.20;83.90
71879;DHT22;59755;43.834;4.364;2022-12-05T16:35:03;8.20;83.80
71879;DHT22;59755;43.834;4.364;2022-12-05T16:37:29;8.10;83.90
71879;DHT22;59755;43.834;4.364;2022-12-05T16:39:55;8.10;83.70
71879;DHT22;59755;43.834;4.364;2022-12-05T16:42:26;8.00;84.40
71879;DHT22;59755;43.834;4.364;2022-12-05T16:44:59;8.00;84.40
71879;DHT22;59755;43.834;4.364;2022-12-05T16:50:36;7.90;84.50
71879;DHT22;59755;43.834;4.364;2022-12-05T16:53:17;7.80;84.80
71879;DHT22;59755;43.834;4.364;2022-12-05T16:55:43;7.80;84.50
71879;DHT22;59755;43.834;4.364;2022-12-05T16:58:19;7.80;84.40
71879;DHT22;59755;43.834;4.364;2022-12-05T17:00:46;7.80;84.30
71879;DHT22;59755;43.834;4.364;2022-12-05T17:03:12;7.90;84.10
71879;DHT22;59755;43.834;4.364;2022-12-05T17:05:39;7.90;83.50
71879;DHT22;59755;43.834;4.364;2022-12-05T17:08:05;7.80;83.90
71879;DHT22;59755;43.834;4.364;2022-12-05T17:10:31;7.90;83.40
71879;DHT22;59755;43.834;4.364;2022-12-05T17:12:57;7.80;83.50
71879;DHT22;59755;43.834;4.364;2022-12-05T17:15:24;7.80;83.90
71879;DHT22;59755;43.834;4.364;2022-12-05T17:17:50;7.80;83.80
71879;DHT22;59755;43.834;4.364;2022-12-05T17:20:16;7.80;83.80
71879;DHT22;59755;43.834;4.364;2022-12-05T17:22:41;7.80;84.00
71879;DHT22;59755;43.834;4.364;2022-12-05T17:25:31;7.80;83.70
71879;DHT22;59755;43.834;4.364;2022-12-05T17:28:00;7.80;83.80
71879;DHT22;59755;43.834;4.364;2022-12-05T17:30:26;7.80;83.90
71879;DHT22;59755;43.834;4.364;2022-12-05T17:32:52;7.70;83.90
71879;DHT22;59755;43.834;4.364;2022-12-05T17:35:19;7.70;84.50
71879;DHT22;59755;43.834;4.364;2022-12-05T17:37:45;7.70;83.90
71879;DHT22;59755;43.834;4.364;2022-12-05T17:40:11;7.80;83.60
71879;DHT22;59755;43.834;4.364;2022-12-05T17:42:38;7.80;83.30
71879;DHT22;59755;43.834;4.364;2022-12-05T17:45:05;7.70;83.10
71879;DHT22;59755;43.834;4.364;2022-12-05T17:47:33;7.70;82.30
71879;DHT22;59755;43.834;4.364;2022-12-05T17:50:00;7.70;82.20
71879;DHT22;59755;43.834;4.364;2022-12-05T17:52:27;7.70;82.20
71879;DHT22;59755;43.834;4.364;2022-12-05T17:54:53;7.70;81.10
71879;DHT22;59755;43.834;4.364;2022-12-05T17:57:19;7.70;80.90
71879;DHT22;59755;43.834;4.364;2022-12-05T17:59:44;7.60;81.00
71879;DHT22;59755;43.834;4.364;2022-12-05T18:02:11;7.60;79.50
71879;DHT22;59755;43.834;4.364;2022-12-05T18:04:37;7.60;79.70
71879;DHT22;59755;43.834;4.364;2022-12-05T18:07:03;7.60;79.20
71879;DHT22;59755;43.834;4.364;2022-12-05T18:09:29;7.60;79.70
71879;DHT22;59755;43.834;4.364;2022-12-05T18:11:55;7.50;79.60
71879;DHT22;59755;43.834;4.364;2022-12-05T18:14:21;7.50;79.50
71879;DHT22;59755;43.834;4.364;2022-12-05T18:16:47;7.50;79.70
71879;DHT22;59755;43.834;4.364;2022-12-05T18:19:13;7.50;79.20
71879;DHT22;59755;43.834;4.364;2022-12-05T18:21:39;7.50;79.70
71879;DHT22;59755;43.834;4.364;2022-12-05T18:24:04;7.40;78.80
71879;DHT22;59755;43.834;4.364;2022-12-05T18:26:30;7.40;78.20
71879;DHT22;59755;43.834;4.364;2022-12-05T18:28:56;7.50;77.60
71879;DHT22;59755;43.834;4.364;2022-12-05T18:31:24;7.40;76.70
71879;DHT22;59755;43.834;4.364;2022-12-05T18:33:50;7.40;76.90
71879;DHT22;59755;43.834;4.364;2022-12-05T18:36:19;7.40;76.70
71879;DHT22;59755;43.834;4.364;2022-12-05T18:38:53;7.40;77.40
71879;DHT22;59755;43.834;4.364;2022-12-05T18:41:20;7.30;77.30
71879;DHT22;59755;43.834;4.364;2022-12-05T18:43:48;7.30;77.90
71879;DHT22;59755;43.834;4.364;2022-12-05T18:46:13;7.30;77.40
71879;DHT22;59755;43.834;4.364;2022-12-05T18:48:39;7.20;77.80
71879;DHT22;59755;43.834;4.364;2022-12-05T18:51:07;7.30;76.80
71879;DHT22;59755;43.834;4.364;2022-12-05T18:53:33;7.30;76.60
71879;DHT22;59755;43.834;4.364;2022-12-05T18:56:06;7.20;76.20
71879;DHT22;59755;43.834;4.364;2022-12-05T18:58:32;7.20;76.20
71879;DHT22;59755;43.834;4.364;2022-12-05T19:01:09;7.20;76.20
71879;DHT22;59755;43.834;4.364;2022-12-05T19:03:36;7.10;76.00
71879;DHT22;59755;43.834;4.364;2022-12-05T19:06:10;7.10;76.20
71879;DHT22;59755;43.834;4.364;2022-12-05T19:08:37;7.10;75.60
71879;DHT22;59755;43.834;4.364;2022-12-05T19:11:03;7.10;75.50
71879;DHT22;59755;43.834;4.364;2022-12-05T19:13:29;7.10;75.30
71879;DHT22;59755;43.834;4.364;2022-12-05T19:16:06;7.10;75.20
71879;DHT22;59755;43.834;4.364;2022-12-05T19:18:32;7.00;75.30
71879;DHT22;59755;43.834;4.364;2022-12-05T19:20:57;7.00;75.10
71879;DHT22;59755;43.834;4.364;2022-12-05T19:23:24;7.00;74.90
71879;DHT22;59755;43.834;4.364;2022-12-05T19:25:54;7.00;74.20